Time;durP1;ratioP1;P1;durP2;ratioP2;P2;SDS_P1;SDS_P2;PMS_P1;PMS_P2;Temp;Humidity;BMP_temperature;BMP_pressure;BME280_temperature;BME280_humidity;BME280_pressure;Samples;Min_cycle;Max_cycle;Signal;HPM_P1;HPM_P2
2021/09/05 00:02:24;;;;;;;17.50;12.82;;;13.50;99.90;;;;;;5071154;28;20020;-73
2021/09/05 00:04:51;;;;;;;16.10;12.57;;;13.40;99.90;;;;;;5071004;28;20390;-75
2021/09/05 00:07:16;;;;;;;21.73;13.13;;;13.30;99.90;;;;;;5070132;28;20032;-74
2021/09/05 00:09:42;;;;;;;19.15;13.52;;;13.20;99.90;;;;;;5070358;28;20028;-74
2021/09/05 00:12:08;;;;;;;16.15;12.65;;;13.20;99.90;;;;;;5071401;28;20467;-74
2021/09/05 00:14:34;;;;;;;17.27;12.45;;;13.20;99.90;;;;;;5070828;28;20031;-74
2021/09/05 00:17:00;;;;;;;20.67;13.48;;;13.30;99.90;;;;;;5071020;28;20017;-74
2021/09/05 00:19:26;;;;;;;17.90;13.55;;;13.30;99.90;;;;;;5071413;28;20382;-74
2021/09/05 00:21:52;;;;;;;17.52;13.40;;;13.20;99.90;;;;;;5071343;28;20025;-76
2021/09/05 00:24:17;;;;;;;21.73;13.50;;;13.20;99.90;;;;;;5071180;28;20095;-74
2021/09/05 00:26:46;;;;;;;20.08;13.88;;;13.20;99.90;;;;;;5072180;28;20575;-72
2021/09/05 00:29:15;;;;;;;19.48;15.00;;;13.10;99.90;;;;;;5072945;28;20028;-75
2021/09/05 00:31:41;;;;;;;20.25;14.57;;;13.10;99.90;;;;;;5072676;28;20029;-73
2021/09/05 00:34:06;;;;;;;23.08;15.00;;;13.10;99.90;;;;;;5072165;28;20028;-73
2021/09/05 00:36:32;;;;;;;23.52;14.77;;;13.10;99.90;;;;;;5070240;28;20082;-72
2021/09/05 00:38:58;;;;;;;21.65;14.73;;;13.00;99.90;;;;;;5053662;28;20029;-73
2021/09/05 00:41:24;;;;;;;18.50;14.32;;;13.00;99.90;;;;;;5071239;28;20031;-73
2021/09/05 00:44:04;;;;;;;19.20;15.30;;;13.00;99.90;;;;;;5071461;28;20021;-72
2021/09/05 00:46:31;;;;;;;22.25;14.73;;;13.00;99.90;;;;;;5075119;28;20021;-73
2021/09/05 00:48:58;;;;;;;21.77;14.20;;;13.00;99.90;;;;;;5074806;28;20024;-74
2021/09/05 00:51:29;;;;;;;21.35;15.45;;;13.00;99.90;;;;;;5075123;28;20042;-73
2021/09/05 00:53:56;;;;;;;18.88;14.77;;;13.00;99.90;;;;;;5075120;28;20386;-74
2021/09/05 00:56:22;;;;;;;18.50;13.57;;;13.00;99.90;;;;;;5074721;28;20115;-73
2021/09/05 00:58:47;;;;;;;16.48;13.05;;;13.00;99.90;;;;;;5075304;28;20167;-74
2021/09/05 01:01:14;;;;;;;18.23;13.27;;;12.90;99.90;;;;;;5074943;28;20027;-73
2021/09/05 01:03:40;;;;;;;15.27;12.32;;;12.90;99.90;;;;;;5074599;28;20024;-74
2021/09/05 01:06:05;;;;;;;20.45;14.73;;;12.80;99.90;;;;;;5073980;28;20039;-73
2021/09/05 01:08:31;;;;;;;19.35;14.10;;;12.90;99.90;;;;;;5074619;28;20020;-74
2021/09/05 01:10:57;;;;;;;16.42;13.32;;;12.80;99.90;;;;;;5074685;28;20029;-74
2021/09/05 01:13:24;;;;;;;18.88;14.65;;;12.80;99.90;;;;;;5074779;28;20025;-74
2021/09/05 01:15:50;;;;;;;21.88;15.00;;;12.80;99.90;;;;;;5074038;28;20016;-73
2021/09/05 01:18:15;;;;;;;23.13;15.57;;;12.80;99.90;;;;;;5074411;28;20024;-74
2021/09/05 01:20:41;;;;;;;20.10;15.50;;;12.80;99.90;;;;;;5074693;28;20046;-73
2021/09/05 01:23:07;;;;;;;22.08;16.13;;;12.80;99.90;;;;;;5074522;28;20024;-75
2021/09/05 01:25:33;;;;;;;23.00;15.23;;;12.80;99.90;;;;;;5073693;28;20017;-74
2021/09/05 01:27:58;;;;;;;23.35;15.23;;;12.70;99.90;;;;;;5074396;28;20367;-73
2021/09/05 01:30:24;;;;;;;21.23;14.55;;;12.80;99.90;;;;;;5074146;28;20093;-73
2021/09/05 01:32:50;;;;;;;20.25;14.90;;;12.60;99.90;;;;;;5074120;28;20024;-75
2021/09/05 01:35:15;;;;;;;21.45;16.13;;;12.60;99.90;;;;;;5073430;28;20504;-73
2021/09/05 01:37:41;;;;;;;21.58;15.13;;;12.70;99.90;;;;;;5074144;28;20091;-74
2021/09/05 01:40:07;;;;;;;24.60;15.73;;;12.70;99.90;;;;;;5086875;22;20271;-73
2021/09/05 01:42:33;;;;;;;22.05;15.82;;;12.60;99.90;;;;;;5086180;28;20447;-72
2021/09/05 01:44:59;;;;;;;24.60;16.05;;;12.60;99.90;;;;;;5093891;28;20074;-72
2021/09/05 01:47:24;;;;;;;20.98;16.02;;;12.60;99.90;;;;;;5094410;28;20397;-72
2021/09/05 01:49:50;;;;;;;23.30;16.17;;;12.60;99.90;;;;;;5094151;28;20512;-72
2021/09/05 01:52:16;;;;;;;21.52;15.32;;;12.60;99.90;;;;;;5093769;28;20470;-73
2021/09/05 01:54:41;;;;;;;20.05;14.18;;;12.60;99.90;;;;;;5075336;28;20024;-71
2021/09/05 01:57:07;;;;;;;17.63;13.48;;;12.50;99.90;;;;;;5075369;28;20024;-73
2021/09/05 01:59:32;;;;;;;19.20;14.05;;;12.50;99.90;;;;;;5094190;28;20031;-74
2021/09/05 02:01:58;;;;;;;18.98;14.55;;;12.50;99.90;;;;;;5093941;28;20024;-72
2021/09/05 02:04:24;;;;;;;20.88;13.55;;;12.40;99.90;;;;;;5093744;28;20031;-72
2021/09/05 02:06:50;;;;;;;18.60;14.95;;;12.40;99.90;;;;;;5093974;28;20052;-72
2021/09/05 02:09:16;;;;;;;22.35;13.65;;;12.40;99.90;;;;;;5093830;28;20497;-73
2021/09/05 02:11:41;;;;;;;21.13;13.50;;;12.40;99.90;;;;;;5092264;28;20034;-72
2021/09/05 02:14:07;;;;;;;21.75;14.48;;;12.30;99.90;;;;;;5093928;28;20024;-72
2021/09/05 02:16:33;;;;;;;21.10;15.30;;;12.30;99.90;;;;;;5093649;28;20394;-73
2021/09/05 02:19:01;;;;;;;23.08;15.35;;;12.30;99.90;;;;;;5093734;28;20035;-72
2021/09/05 02:21:26;;;;;;;22.15;16.02;;;12.20;99.90;;;;;;5093824;28;20024;-72
2021/09/05 02:23:52;;;;;;;22.20;15.00;;;12.30;99.90;;;;;;5098279;28;20091;-71
2021/09/05 02:26:17;;;;;;;22.35;15.07;;;12.20;99.90;;;;;;5099076;28;20033;-71
2021/09/05 02:28:43;;;;;;;21.73;14.90;;;12.30;99.90;;;;;;5096158;28;20397;-72
2021/09/05 02:31:09;;;;;;;18.27;14.63;;;12.30;99.90;;;;;;5093622;28;20028;-72
2021/09/05 02:33:34;;;;;;;20.23;14.82;;;12.30;99.90;;;;;;5093634;28;20397;-72
2021/09/05 02:36:00;;;;;;;22.58;14.65;;;12.20;99.90;;;;;;5074725;28;20039;-71
2021/09/05 02:38:26;;;;;;;19.50;14.55;;;12.30;99.90;;;;;;5093513;28;20027;-71
2021/09/05 02:40:51;;;;;;;20.05;13.88;;;12.20;99.90;;;;;;5088510;28;20737;-72
2021/09/05 02:43:17;;;;;;;17.92;13.90;;;12.20;99.90;;;;;;5073116;28;20107;-71
2021/09/05 02:45:43;;;;;;;16.55;12.82;;;12.20;99.90;;;;;;5072443;28;20099;-71
2021/09/05 02:48:08;;;;;;;18.38;13.30;;;12.20;99.90;;;;;;5054996;28;20039;-72
2021/09/05 02:50:34;;;;;;;20.77;13.32;;;12.10;99.90;;;;;;5072860;28;20032;-73
2021/09/05 02:52:59;;;;;;;19.35;14.10;;;12.20;99.90;;;;;;5073004;28;20505;-73
2021/09/05 02:55:25;;;;;;;16.45;13.05;;;12.10;99.90;;;;;;5071942;28;20440;-72
2021/09/05 02:57:51;;;;;;;23.42;14.48;;;12.10;99.90;;;;;;5072696;28;20028;-72
2021/09/05 03:00:17;;;;;;;19.05;14.95;;;12.20;99.90;;;;;;5054585;28;20103;-72
2021/09/05 03:02:42;;;;;;;18.85;13.88;;;12.20;99.90;;;;;;5085114;28;20099;-71
2021/09/05 03:05:08;;;;;;;19.08;13.50;;;12.20;99.90;;;;;;5092267;28;20027;-71
2021/09/05 03:07:34;;;;;;;17.67;13.45;;;12.20;99.90;;;;;;5073968;28;20024;-72
2021/09/05 03:10:00;;;;;;;18.75;13.98;;;12.10;99.90;;;;;;5092414;28;20547;-71
2021/09/05 03:12:26;;;;;;;18.10;14.60;;;12.10;99.90;;;;;;5092665;28;20028;-72
2021/09/05 03:14:51;;;;;;;20.20;14.82;;;12.10;99.90;;;;;;5073858;28;20054;-71
2021/09/05 03:17:17;;;;;;;17.88;13.85;;;12.10;99.90;;;;;;5092444;28;20409;-71
2021/09/05 03:19:43;;;;;;;17.27;13.65;;;12.00;99.90;;;;;;5090905;28;20489;-71
2021/09/05 03:22:09;;;;;;;17.30;13.35;;;12.00;99.90;;;;;;5074254;28;20032;-73
2021/09/05 03:24:34;;;;;;;19.95;14.35;;;11.90;99.90;;;;;;5091708;28;20032;-72
2021/09/05 03:27:00;;;;;;;16.13;13.18;;;12.00;99.90;;;;;;5092519;28;20024;-71
2021/09/05 03:29:25;;;;;;;22.73;12.88;;;12.00;99.90;;;;;;5092658;28;20339;-72
2021/09/05 03:31:51;;;;;;;22.92;14.43;;;12.00;99.90;;;;;;5092186;28;20023;-72
2021/09/05 03:34:17;;;;;;;20.58;13.77;;;11.90;99.90;;;;;;5092000;28;20034;-72
2021/09/05 03:36:43;;;;;;;16.25;13.70;;;12.00;99.90;;;;;;5092383;28;20085;-71
2021/09/05 03:39:09;;;;;;;22.63;15.13;;;12.00;99.90;;;;;;5092505;28;20370;-71
2021/09/05 03:41:35;;;;;;;20.45;14.35;;;11.90;99.90;;;;;;5102492;28;20082;-72
2021/09/05 03:44:01;;;;;;;23.77;15.00;;;11.90;99.90;;;;;;5089794;28;20055;-71
2021/09/05 03:46:26;;;;;;;19.63;14.77;;;11.90;99.90;;;;;;5091668;28;20016;-71
2021/09/05 03:48:52;;;;;;;21.55;13.85;;;11.90;99.90;;;;;;5091871;28;20394;-71
2021/09/05 03:51:17;;;;;;;19.13;14.50;;;11.90;99.90;;;;;;5092090;28;20043;-70
2021/09/05 03:53:45;;;;;;;24.25;14.88;;;11.90;99.90;;;;;;5092041;28;20035;-72
2021/09/05 03:56:11;;;;;;;23.48;15.75;;;11.80;99.90;;;;;;5091357;28;20020;-71
2021/09/05 03:58:37;;;;;;;21.77;14.75;;;11.80;99.90;;;;;;5073582;28;20123;-71
2021/09/05 04:01:02;;;;;;;19.17;14.07;;;11.80;99.90;;;;;;5074423;28;20430;-69
2021/09/05 04:03:28;;;;;;;24.88;16.08;;;11.80;99.90;;;;;;5092235;28;20157;-71
2021/09/05 04:05:54;;;;;;;23.58;15.93;;;11.70;99.90;;;;;;5091540;28;20104;-72
2021/09/05 04:08:29;;;;;;;22.83;16.13;;;11.70;99.90;;;;;;5091878;28;20036;-71
2021/09/05 04:10:54;;;;;;;20.73;15.23;;;11.70;99.90;;;;;;5090401;28;20028;-71
2021/09/05 04:13:20;;;;;;;24.48;16.10;;;11.70;99.90;;;;;;5091754;28;20024;-72
2021/09/05 04:15:46;;;;;;;20.60;14.68;;;11.70;99.90;;;;;;5091049;28;20024;-72
2021/09/05 04:18:11;;;;;;;20.88;15.43;;;11.60;99.90;;;;;;5091157;28;20051;-71
2021/09/05 04:20:37;;;;;;;28.33;16.05;;;11.60;99.90;;;;;;5072564;28;20027;-71
2021/09/05 04:23:03;;;;;;;22.33;15.45;;;11.60;99.90;;;;;;5090948;28;20411;-71
2021/09/05 04:25:28;;;;;;;21.08;15.48;;;11.60;99.90;;;;;;5072588;28;20033;-71
2021/09/05 04:27:54;;;;;;;18.50;13.57;;;11.60;99.90;;;;;;5091519;28;20115;-72
2021/09/05 04:30:20;;;;;;;23.48;15.07;;;11.60;99.90;;;;;;5089383;28;20059;-71
2021/09/05 04:32:45;;;;;;;19.77;14.18;;;11.60;99.90;;;;;;5091332;28;20435;-70
2021/09/05 04:35:11;;;;;;;17.40;13.95;;;11.60;99.90;;;;;;5070430;28;20506;-78
2021/09/05 04:37:37;;;;;;;19.58;14.18;;;11.60;99.90;;;;;;5070790;28;20037;-78
2021/09/05 04:40:05;;;;;;;28.60;16.15;;;11.60;99.90;;;;;;5071801;28;20060;-79
2021/09/05 04:42:31;;;;;;;24.27;15.48;;;11.60;99.90;;;;;;5071812;28;20104;-76
2021/09/05 04:44:57;;;;;;;22.08;15.57;;;11.60;99.90;;;;;;5070786;28;20092;-77
2021/09/05 04:47:22;;;;;;;20.63;15.00;;;11.60;99.90;;;;;;5070979;28;20117;-77
2021/09/05 04:49:48;;;;;;;20.98;14.93;;;11.50;99.90;;;;;;5071591;28;20025;-78
2021/09/05 04:52:14;;;;;;;21.08;15.77;;;11.40;99.90;;;;;;5072191;28;20518;-77
2021/09/05 04:54:39;;;;;;;20.38;14.30;;;11.50;99.90;;;;;;5071521;28;20434;-77
2021/09/05 04:57:05;;;;;;;18.02;13.55;;;11.50;99.90;;;;;;5071124;28;20024;-78
2021/09/05 04:59:31;;;;;;;21.00;15.10;;;11.40;99.90;;;;;;5072019;28;20139;-79
2021/09/05 05:01:57;;;;;;;17.70;13.00;;;11.50;99.90;;;;;;5060913;28;20031;-78
2021/09/05 05:04:23;;;;;;;20.15;14.18;;;11.50;99.90;;;;;;5090860;28;20036;-77
2021/09/05 05:06:48;;;;;;;18.33;14.20;;;11.50;99.90;;;;;;5091639;28;20016;-79
2021/09/05 05:09:15;;;;;;;20.35;15.18;;;11.50;99.90;;;;;;5073230;28;20486;-77
2021/09/05 05:11:43;;;;;;;21.70;15.10;;;11.50;99.90;;;;;;5091418;28;20023;-77
2021/09/05 05:14:09;;;;;;;18.67;13.57;;;11.60;99.90;;;;;;5073635;28;20695;-79
2021/09/05 05:16:35;;;;;;;20.85;15.60;;;11.60;99.90;;;;;;5075736;28;20024;-75
2021/09/05 05:19:01;;;;;;;19.88;14.20;;;11.60;99.90;;;;;;5081270;28;20029;-76
2021/09/05 05:21:28;;;;;;;18.60;14.45;;;11.70;99.90;;;;;;5073329;28;20052;-76
2021/09/05 05:23:58;;;;;;;19.08;14.77;;;11.70;99.90;;;;;;5071348;28;20022;-78
2021/09/05 05:26:26;;;;;;;23.30;14.30;;;11.70;99.90;;;;;;5071238;28;20051;-79
2021/09/05 05:28:52;;;;;;;18.85;14.35;;;11.70;99.90;;;;;;5072661;28;20033;-78
2021/09/05 05:31:18;;;;;;;18.05;14.05;;;11.80;99.90;;;;;;5075073;28;20037;-78
2021/09/05 05:33:43;;;;;;;17.40;14.65;;;11.80;99.90;;;;;;5096425;28;20366;-78
2021/09/05 05:36:09;;;;;;;15.95;13.45;;;11.80;99.90;;;;;;5091059;28;20032;-80
2021/09/05 05:38:39;;;;;;;17.30;13.13;;;11.80;99.90;;;;;;5060966;28;20036;-77
2021/09/05 05:41:05;;;;;;;20.25;13.07;;;11.80;99.90;;;;;;5056222;28;20037;-79
2021/09/05 05:43:32;;;;;;;17.05;12.70;;;11.80;99.90;;;;;;5069855;28;20032;-76
2021/09/05 05:45:58;;;;;;;15.60;11.75;;;11.80;99.90;;;;;;5070827;28;20024;-79
2021/09/05 05:48:24;;;;;;;14.90;12.07;;;11.80;99.90;;;;;;5076300;28;20039;-79
2021/09/05 05:50:51;;;;;;;13.73;11.77;;;11.90;99.90;;;;;;5079567;28;20039;-78
2021/09/05 05:53:17;;;;;;;15.98;11.13;;;11.90;99.90;;;;;;5083085;28;20426;-77
2021/09/05 05:55:43;;;;;;;16.83;11.13;;;11.90;99.90;;;;;;5076039;28;20025;-79
2021/09/05 05:58:08;;;;;;;14.73;11.73;;;12.10;99.90;;;;;;5076655;28;20474;-79
2021/09/05 06:00:35;;;;;;;12.88;10.57;;;12.20;99.90;;;;;;5076429;28;20023;-79
2021/09/05 06:03:01;;;;;;;15.25;11.52;;;12.30;99.90;;;;;;5077339;28;20021;-85
2021/09/05 06:05:27;;;;;;;16.02;12.32;;;12.50;99.90;;;;;;5059017;28;20021;-78
2021/09/05 06:07:53;;;;;;;13.70;11.13;;;12.60;99.90;;;;;;5078439;28;20050;-81
2021/09/05 06:10:19;;;;;;;13.60;11.02;;;13.00;99.90;;;;;;5077482;28;20123;-81
2021/09/05 06:12:45;;;;;;;13.60;10.68;;;13.20;99.90;;;;;;5072664;28;20099;-81
2021/09/05 06:15:13;;;;;;;15.85;11.07;;;13.20;99.90;;;;;;5038491;28;20060;-81
2021/09/05 06:17:39;;;;;;;14.18;11.00;;;13.10;99.90;;;;;;5097282;28;20024;-81
2021/09/05 06:20:07;;;;;;;14.07;12.50;;;13.00;99.90;;;;;;5079081;28;20020;-80
2021/09/05 06:22:32;;;;;;;16.92;11.48;;;13.00;99.90;;;;;;5079286;28;20043;-81
2021/09/05 06:24:58;;;;;;;16.80;11.75;;;13.10;99.90;;;;;;5096010;28;20061;-79
2021/09/05 06:27:24;;;;;;;15.75;12.20;;;13.20;99.90;;;;;;5077818;28;20017;-78
2021/09/05 06:29:49;;;;;;;14.60;12.55;;;13.20;99.90;;;;;;5085117;28;20103;-81
2021/09/05 06:32:15;;;;;;;18.23;12.98;;;13.30;99.90;;;;;;5075513;28;20081;-82
2021/09/05 06:34:44;;;;;;;17.15;12.98;;;13.40;99.90;;;;;;5074613;28;20024;-78
2021/09/05 06:37:10;;;;;;;15.00;12.23;;;13.40;99.90;;;;;;5075050;28;20036;-78
2021/09/05 06:39:35;;;;;;;16.92;12.35;;;13.50;99.90;;;;;;5074766;28;20033;-80
2021/09/05 06:42:01;;;;;;;15.32;12.07;;;13.50;99.90;;;;;;5075130;28;20051;-80
2021/09/05 06:44:27;;;;;;;14.02;12.02;;;13.60;99.90;;;;;;5073890;28;20508;-77
2021/09/05 06:46:55;;;;;;;15.68;11.50;;;13.70;99.90;;;;;;5089199;28;20040;-79
2021/09/05 06:49:21;;;;;;;17.15;11.52;;;13.70;99.90;;;;;;5095633;28;20024;-79
2021/09/05 06:51:47;;;;;;;13.65;10.93;;;13.80;99.90;;;;;;5094760;28;20397;-79
2021/09/05 06:54:12;;;;;;;15.82;10.50;;;13.90;99.90;;;;;;5096416;28;20117;-78
2021/09/05 06:56:38;;;;;;;12.65;10.20;;;14.00;99.90;;;;;;5092615;28;20382;-81
2021/09/05 06:59:04;;;;;;;17.50;10.57;;;14.00;99.90;;;;;;5094510;28;20470;-78
2021/09/05 07:01:32;;;;;;;17.45;10.60;;;14.10;99.90;;;;;;5093922;28;20016;-79
2021/09/05 07:03:58;;;;;;;12.73;9.70;;;14.30;99.90;;;;;;5095121;28;20103;-80
2021/09/05 07:06:24;;;;;;;11.50;9.20;;;14.20;99.90;;;;;;5094873;28;20070;-79
2021/09/05 07:08:49;;;;;;;13.13;9.10;;;14.30;99.90;;;;;;5095049;28;20489;-80
2021/09/05 07:11:15;;;;;;;9.75;8.75;;;14.30;99.90;;;;;;5094286;28;20061;-80
2021/09/05 07:13:40;;;;;;;9.85;8.45;;;14.40;99.90;;;;;;5078614;28;20032;-80
2021/09/05 07:16:07;;;;;;;13.50;9.75;;;14.50;99.90;;;;;;5070100;28;20048;-80
2021/09/05 07:18:33;;;;;;;10.48;8.80;;;14.50;99.90;;;;;;5072683;28;20025;-79
2021/09/05 07:20:59;;;;;;;11.35;9.05;;;14.70;99.90;;;;;;5073268;28;20096;-79
2021/09/05 07:23:24;;;;;;;10.23;8.88;;;14.90;99.90;;;;;;5072832;28;20031;-78
2021/09/05 07:25:50;;;;;;;10.55;8.70;;;14.90;99.90;;;;;;5073018;28;20470;-82
2021/09/05 07:28:16;;;;;;;10.10;8.80;;;15.00;99.90;;;;;;5073624;28;20082;-78
2021/09/05 07:30:41;;;;;;;9.20;7.80;;;15.10;99.90;;;;;;5074686;28;20086;-79
2021/09/05 07:33:07;;;;;;;9.07;8.18;;;15.20;99.90;;;;;;5064788;28;20178;-80
2021/09/05 07:35:33;;;;;;;8.73;7.72;;;15.40;99.90;;;;;;5062080;28;20036;-78
2021/09/05 07:37:58;;;;;;;9.77;7.90;;;15.60;99.90;;;;;;5074677;28;20119;-77
2021/09/05 07:40:24;;;;;;;9.25;7.65;;;15.80;99.90;;;;;;5092469;28;20043;-76
2021/09/05 07:42:49;;;;;;;11.02;7.03;;;16.00;99.90;;;;;;5121946;22;20032;-78
2021/09/05 07:45:15;;;;;;;10.38;7.55;;;16.10;99.90;;;;;;5100152;27;20034;-78
2021/09/05 07:47:41;;;;;;;7.68;6.88;;;16.50;99.90;;;;;;5102668;28;20024;-79
2021/09/05 07:50:08;;;;;;;7.22;6.53;;;16.70;99.90;;;;;;5101572;28;20445;-79
2021/09/05 07:52:33;;;;;;;10.25;7.70;;;16.90;99.90;;;;;;5102401;28;20020;-78
2021/09/05 07:54:59;;;;;;;7.75;6.72;;;17.00;99.90;;;;;;5100859;28;20458;-78
2021/09/05 07:57:25;;;;;;;6.95;6.25;;;17.20;99.90;;;;;;5101282;28;20488;-79
2021/09/05 07:59:51;;;;;;;8.75;6.25;;;17.50;99.90;;;;;;5101545;28;20068;-79
2021/09/05 08:02:16;;;;;;;7.70;6.90;;;17.80;99.90;;;;;;5102155;28;20020;-80
2021/09/05 08:04:42;;;;;;;8.13;5.85;;;17.70;99.90;;;;;;5099186;28;20028;-79
2021/09/05 08:07:08;;;;;;;7.03;5.93;;;17.80;99.90;;;;;;5101007;28;20032;-79
2021/09/05 08:09:33;;;;;;;7.47;5.93;;;18.60;99.90;;;;;;5100590;28;20024;-76
2021/09/05 08:11:59;;;;;;;9.27;6.72;;;19.00;99.90;;;;;;5101422;28;20107;-76
2021/09/05 08:14:24;;;;;;;6.95;6.28;;;19.10;99.90;;;;;;5097734;28;20500;-80
2021/09/05 08:16:50;;;;;;;8.13;5.97;;;19.40;99.90;;;;;;5101025;28;20469;-76
2021/09/05 08:19:16;;;;;;;6.93;6.28;;;19.50;99.90;;;;;;5099543;28;20470;-79
2021/09/05 08:21:41;;;;;;;7.50;6.80;;;19.60;99.90;;;;;;5091699;28;20027;-79
2021/09/05 08:24:07;;;;;;;7.00;6.40;;;19.70;99.90;;;;;;5091779;28;20031;-79
2021/09/05 08:26:33;;;;;;;7.10;6.50;;;19.50;99.90;;;;;;5091121;28;20424;-79
2021/09/05 08:28:59;;;;;;;6.70;5.95;;;19.30;99.90;;;;;;5089622;28;20095;-76
2021/09/05 08:31:24;;;;;;;8.25;6.15;;;20.00;99.90;;;;;;5091517;28;20074;-76
2021/09/05 08:33:50;;;;;;;8.95;6.15;;;20.50;99.90;;;;;;5087736;28;20024;-76
2021/09/05 08:36:16;;;;;;;6.07;5.57;;;21.00;99.90;;;;;;5090017;28;20039;-76
2021/09/05 08:38:42;;;;;;;7.40;6.45;;;21.70;99.90;;;;;;5091195;28;20111;-77
2021/09/05 08:41:08;;;;;;;6.95;5.75;;;21.80;99.90;;;;;;5089265;28;20132;-77
2021/09/05 08:43:35;;;;;;;7.93;5.53;;;21.90;99.90;;;;;;5090119;28;20032;-80
2021/09/05 08:46:01;;;;;;;12.32;5.32;;;22.20;99.90;;;;;;5090587;28;20039;-76
2021/09/05 08:48:26;;;;;;;7.60;6.00;;;22.70;99.90;;;;;;5090859;28;20393;-78
2021/09/05 08:50:53;;;;;;;7.72;6.32;;;23.00;99.90;;;;;;5091165;28;20036;-79
2021/09/05 08:53:19;;;;;;;6.03;5.40;;;21.90;99.90;;;;;;5089904;28;20028;-78
2021/09/05 08:55:46;;;;;;;11.85;5.72;;;22.20;99.90;;;;;;5089798;28;20080;-79
2021/09/05 08:58:12;;;;;;;6.22;5.63;;;23.00;99.90;;;;;;5091290;28;20146;-78
2021/09/05 09:00:38;;;;;;;5.55;4.97;;;23.10;99.90;;;;;;5073861;28;20020;-78
2021/09/05 09:03:04;;;;;;;7.38;5.40;;;23.40;99.90;;;;;;5070794;28;20024;-77
2021/09/05 09:05:35;;;;;;;5.50;5.03;;;22.80;99.90;;;;;;5070998;28;20299;-77
2021/09/05 09:08:09;;;;;;;14.60;5.10;;;23.10;99.90;;;;;;5075246;28;20036;-78
2021/09/05 09:10:49;;;;;;;6.63;4.72;;;23.70;99.90;;;;;;5075327;28;20289;-79
2021/09/05 09:13:29;;;;;;;5.63;5.10;;;24.00;99.90;;;;;;5075465;28;20025;-77
2021/09/05 09:16:07;;;;;;;5.35;4.82;;;24.80;99.90;;;;;;5074242;28;20157;-76
2021/09/05 09:18:36;;;;;;;5.20;4.70;;;24.70;99.90;;;;;;5074851;28;20025;-78
2021/09/05 09:21:05;;;;;;;6.25;4.28;;;24.70;99.90;;;;;;5075076;28;20017;-78
2021/09/05 09:23:33;;;;;;;5.05;4.63;;;25.10;99.90;;;;;;5074914;28;20028;-80
2021/09/05 09:26:04;;;;;;;4.68;4.25;;;24.70;99.90;;;;;;5074462;28;20086;-75
2021/09/05 09:28:36;;;;;;;4.65;4.35;;;25.10;99.70;;;;;;5075059;28;20035;-78
2021/09/05 09:31:15;;;;;;;6.05;4.43;;;25.70;99.90;;;;;;5074253;28;20033;-79
2021/09/05 09:33:46;;;;;;;4.72;4.28;;;26.00;99.90;;;;;;5074571;28;20039;-79
2021/09/05 09:36:17;;;;;;;4.68;4.28;;;27.30;98.70;;;;;;5072427;28;20078;-78
2021/09/05 09:39:06;;;;;;;5.15;4.53;;;27.50;96.50;;;;;;5075315;28;20032;-79
2021/09/05 09:41:37;;;;;;;4.68;4.28;;;27.30;95.50;;;;;;5094584;28;20016;-78
2021/09/05 09:44:05;;;;;;;5.78;4.20;;;26.70;95.50;;;;;;5094146;28;20028;-78
2021/09/05 09:46:34;;;;;;;5.60;4.93;;;25.80;98.30;;;;;;5093818;28;20028;-79
2021/09/05 09:49:06;;;;;;;6.72;4.40;;;26.80;97.30;;;;;;5094647;28;20024;-79
2021/09/05 09:51:32;;;;;;;4.60;4.20;;;26.90;96.90;;;;;;5093145;28;20024;-79
2021/09/05 09:53:58;;;;;;;5.20;4.72;;;27.10;96.20;;;;;;5093128;28;20054;-79
2021/09/05 09:56:26;;;;;;;5.40;4.40;;;26.80;95.40;;;;;;5093807;28;20028;-77
2021/09/05 09:58:57;;;;;;;4.95;4.55;;;26.40;96.50;;;;;;5094449;28;20035;-79
2021/09/05 10:01:28;;;;;;;4.35;3.97;;;26.60;96.00;;;;;;5093381;28;20020;-77
2021/09/05 10:03:56;;;;;;;4.53;4.13;;;26.90;96.10;;;;;;5074207;28;20422;-79
2021/09/05 10:06:27;;;;;;;6.40;4.57;;;26.80;95.20;;;;;;5073195;28;20467;-77
2021/09/05 10:08:56;;;;;;;4.83;4.43;;;26.20;96.40;;;;;;5074301;28;20494;-78
2021/09/05 10:11:23;;;;;;;4.80;4.40;;;26.40;97.30;;;;;;5074948;28;20475;-77
2021/09/05 10:13:49;;;;;;;7.78;4.68;;;26.30;97.90;;;;;;5074788;28;20021;-77
2021/09/05 10:16:15;;;;;;;5.05;4.57;;;26.20;96.70;;;;;;5072773;28;20086;-77
2021/09/05 10:18:46;;;;;;;5.03;4.53;;;25.90;97.00;;;;;;5074305;28;20024;-79
2021/09/05 10:21:22;;;;;;;4.77;4.37;;;26.40;96.70;;;;;;5074669;28;20017;-77
2021/09/05 10:23:54;;;;;;;4.47;4.07;;;27.70;96.10;;;;;;5074016;28;20270;-76
2021/09/05 10:26:20;;;;;;;6.35;4.22;;;28.70;94.90;;;;;;5075936;28;20501;-76
2021/09/05 10:28:51;;;;;;;4.55;4.20;;;29.90;94.90;;;;;;5080505;28;20033;-77
2021/09/05 10:31:26;;;;;;;4.15;3.85;;;30.20;91.20;;;;;;5093196;28;20027;-78
2021/09/05 10:33:53;;;;;;;3.92;3.55;;;31.00;90.80;;;;;;5073505;28;20135;-76
2021/09/05 10:36:21;;;;;;;4.57;3.92;;;31.20;89.80;;;;;;5073385;28;20024;-77
2021/09/05 10:38:47;;;;;;;4.05;3.60;;;31.00;87.90;;;;;;5075141;28;20067;-80
2021/09/05 10:41:23;;;;;;;5.00;3.92;;;30.90;87.70;;;;;;5074699;28;20021;-75
2021/09/05 10:43:51;;;;;;;4.30;4.00;;;31.40;86.10;;;;;;5077689;28;20082;-76
2021/09/05 10:46:32;;;;;;;4.38;3.53;;;30.60;89.00;;;;;;5096677;28;20081;-77
2021/09/05 10:49:03;;;;;;;3.90;3.70;;;32.10;86.10;;;;;;5103949;28;20074;-77
2021/09/05 10:51:42;;;;;;;3.22;3.03;;;32.20;83.20;;;;;;5105248;28;20024;-77
2021/09/05 10:54:10;;;;;;;3.67;3.47;;;31.70;75.30;;;;;;5099034;28;20083;-77
2021/09/05 10:56:44;;;;;;;3.45;3.15;;;32.00;77.60;;;;;;5099931;28;20027;-75
2021/09/05 10:59:11;;;;;;;3.63;3.30;;;32.30;74.00;;;;;;5103424;28;20028;-76
2021/09/05 11:01:41;;;;;;;3.40;3.10;;;33.40;71.00;;;;;;5092674;28;20371;-74
2021/09/05 11:04:14;;;;;;;3.10;2.90;;;33.60;71.50;;;;;;5077389;28;20021;-76
2021/09/05 11:06:42;;;;;;;3.92;3.10;;;34.50;69.40;;;;;;5078096;28;20016;-78
2021/09/05 11:11:56;;;;;;;3.42;2.75;;;34.30;69.40;;;;;;5075477;28;20028;-77
2021/09/05 11:14:37;;;;;;;4.55;3.38;;;34.90;72.10;;;;;;5077221;28;20080;-76
2021/09/05 11:17:09;;;;;;;4.88;3.40;;;35.70;64.90;;;;;;5075947;28;20047;-77
2021/09/05 11:19:43;;;;;;;3.63;3.10;;;33.50;64.30;;;;;;5074866;28;20359;-77
2021/09/05 11:22:11;;;;;;;3.65;3.35;;;34.10;69.10;;;;;;5073265;28;20046;-77
2021/09/05 11:24:37;;;;;;;3.30;3.10;;;33.30;67.20;;;;;;5072305;28;20512;-76
2021/09/05 11:27:04;;;;;;;4.13;3.83;;;33.30;67.70;;;;;;5073495;28;20055;-76
2021/09/05 11:29:30;;;;;;;3.80;3.55;;;34.00;64.90;;;;;;5086568;28;20035;-76
2021/09/05 11:32:08;;;;;;;3.60;3.40;;;33.50;67.60;;;;;;5094283;28;20472;-77
2021/09/05 11:34:34;;;;;;;3.80;3.50;;;33.30;66.90;;;;;;5079012;28;20036;-78
2021/09/05 11:37:00;;;;;;;3.35;3.15;;;33.30;69.00;;;;;;5075369;28;20025;-77
2021/09/05 11:39:26;;;;;;;4.10;3.10;;;33.70;66.90;;;;;;5071754;28;20077;-76
2021/09/05 11:41:57;;;;;;;3.88;3.58;;;32.80;66.50;;;;;;5072108;28;20048;-75
2021/09/05 11:44:37;;;;;;;3.30;3.10;;;33.40;71.00;;;;;;5071022;28;20028;-75
2021/09/05 11:47:17;;;;;;;3.67;3.38;;;33.70;65.30;;;;;;5069889;28;20032;-75
2021/09/05 11:49:51;;;;;;;4.15;3.72;;;33.20;66.10;;;;;;5071881;28;20025;-77
2021/09/05 11:52:24;;;;;;;3.85;3.53;;;33.00;65.80;;;;;;5071795;28;20035;-76
2021/09/05 11:55:12;;;;;;;6.78;3.55;;;33.10;68.10;;;;;;5071403;28;20051;-77
2021/09/05 11:57:57;;;;;;;3.75;3.45;;;33.20;65.10;;;;;;5071307;28;20047;-78
2021/09/05 12:00:28;;;;;;;3.83;3.53;;;32.90;66.90;;;;;;5071974;28;20995;-78
2021/09/05 12:02:54;;;;;;;3.90;3.60;;;32.10;65.90;;;;;;5072100;28;20029;-78
2021/09/05 12:05:20;;;;;;;4.75;3.95;;;31.70;65.00;;;;;;5071597;28;20056;-78
2021/09/05 12:07:46;;;;;;;3.65;3.42;;;31.80;69.30;;;;;;5072630;28;20115;-77
2021/09/05 12:10:15;;;;;;;3.97;3.67;;;31.20;66.40;;;;;;5079737;28;20029;-76
2021/09/05 12:12:41;;;;;;;4.00;3.70;;;30.70;70.60;;;;;;5086444;28;20025;-77
2021/09/05 12:15:18;;;;;;;3.83;3.53;;;30.60;69.80;;;;;;5087456;28;20089;-80
2021/09/05 12:17:49;;;;;;;4.68;3.70;;;30.00;71.00;;;;;;5086535;28;20081;-76
2021/09/05 12:20:21;;;;;;;5.57;4.53;;;30.50;73.00;;;;;;5083780;28;20059;-76
2021/09/05 12:22:55;;;;;;;4.38;3.97;;;30.60;70.90;;;;;;5072192;28;20027;-75
2021/09/05 12:25:34;;;;;;;5.93;4.22;;;30.90;73.00;;;;;;5071013;28;20020;-76
2021/09/05 12:28:08;;;;;;;4.15;3.55;;;30.10;70.00;;;;;;5071548;28;20455;-75
2021/09/05 12:30:39;;;;;;;3.97;3.55;;;29.90;72.80;;;;;;5087572;28;20020;-75
2021/09/05 12:33:06;;;;;;;7.18;3.63;;;30.40;69.80;;;;;;5091702;28;20024;-76
2021/09/05 12:35:31;;;;;;;5.60;4.32;;;30.00;68.70;;;;;;5073788;28;20785;-75
2021/09/05 12:38:07;;;;;;;4.10;3.80;;;29.90;71.20;;;;;;5070396;28;20025;-76
2021/09/05 12:40:45;;;;;;;4.47;3.65;;;30.70;73.90;;;;;;5071675;28;20442;-76